sensor_id;sensor_type;location;lat;lon;timestamp;pressure;altitude;pressure_sealevel;temperature;humidity
75629;BME280;64213;46.452;16.994;2023-08-31T00:02:59;99261.37;;;17.34;78.27
75629;BME280;64213;46.452;16.994;2023-08-31T00:06:02;99253.50;;;17.32;78.75
75629;BME280;64213;46.452;16.994;2023-08-31T00:09:09;99251.16;;;17.29;78.86
75629;BME280;64213;46.452;16.994;2023-08-31T00:12:11;99247.13;;;17.25;79.17
75629;BME280;64213;46.452;16.994;2023-08-31T00:15:13;99244.47;;;17.25;79.33
75629;BME280;64213;46.452;16.994;2023-08-31T00:18:15;99244.78;;;17.22;79.84
75629;BME280;64213;46.452;16.994;2023-08-31T00:21:18;99245.78;;;17.21;80.09
75629;BME280;64213;46.452;16.994;2023-08-31T00:24:20;99258.31;;;17.20;79.90
75629;BME280;64213;46.452;16.994;2023-08-31T00:27:23;99254.13;;;17.18;79.96
75629;BME280;64213;46.452;16.994;2023-08-31T00:30:25;99254.44;;;17.15;79.74
75629;BME280;64213;46.452;16.994;2023-08-31T00:33:31;99256.09;;;17.16;79.62
75629;BME280;64213;46.452;16.994;2023-08-31T00:36:35;99254.63;;;17.13;79.52
75629;BME280;64213;46.452;16.994;2023-08-31T00:39:37;99248.25;;;17.14;79.26
75629;BME280;64213;46.452;16.994;2023-08-31T00:42:40;99258.12;;;17.14;79.24
75629;BME280;64213;46.452;16.994;2023-08-31T00:45:43;99250.09;;;17.14;79.18
75629;BME280;64213;46.452;16.994;2023-08-31T00:48:46;99252.09;;;17.12;79.00
75629;BME280;64213;46.452;16.994;2023-08-31T00:51:48;99257.44;;;17.12;78.82
75629;BME280;64213;46.452;16.994;2023-08-31T00:54:52;99253.75;;;17.13;78.52
75629;BME280;64213;46.452;16.994;2023-08-31T00:57:55;99257.13;;;17.15;78.48
75629;BME280;64213;46.452;16.994;2023-08-31T01:01:06;99251.78;;;17.15;78.33
75629;BME280;64213;46.452;16.994;2023-08-31T01:11:08;99279.66;;;17.12;78.15
75629;BME280;64213;46.452;16.994;2023-08-31T01:14:18;99285.81;;;17.13;77.76
75629;BME280;64213;46.452;16.994;2023-08-31T01:17:22;99288.34;;;17.14;77.43
75629;BME280;64213;46.452;16.994;2023-08-31T01:20:35;99293.84;;;17.13;76.98
75629;BME280;64213;46.452;16.994;2023-08-31T01:24:00;99290.50;;;17.11;77.26
75629;BME280;64213;46.452;16.994;2023-08-31T01:27:03;99285.16;;;17.11;77.22
75629;BME280;64213;46.452;16.994;2023-08-31T01:30:06;99283.47;;;17.10;77.31
75629;BME280;64213;46.452;16.994;2023-08-31T01:33:08;99290.44;;;17.03;77.54
75629;BME280;64213;46.452;16.994;2023-08-31T01:36:30;99300.50;;;17.09;77.82
75629;BME280;64213;46.452;16.994;2023-08-31T01:39:39;99300.50;;;17.09;78.44
75629;BME280;64213;46.452;16.994;2023-08-31T01:42:46;99306.47;;;17.03;78.92
75629;BME280;64213;46.452;16.994;2023-08-31T01:45:49;99294.44;;;16.99;82.01
75629;BME280;64213;46.452;16.994;2023-08-31T01:48:51;99292.72;;;16.89;83.26
75629;BME280;64213;46.452;16.994;2023-08-31T01:51:53;99299.31;;;16.77;83.35
75629;BME280;64213;46.452;16.994;2023-08-31T01:54:55;99301.72;;;16.70;83.83
75629;BME280;64213;46.452;16.994;2023-08-31T01:57:58;99312.03;;;16.65;84.44
75629;BME280;64213;46.452;16.994;2023-08-31T02:01:00;99300.37;;;16.66;85.07
75629;BME280;64213;46.452;16.994;2023-08-31T02:04:03;99309.22;;;16.67;85.37
75629;BME280;64213;46.452;16.994;2023-08-31T02:07:05;99312.12;;;16.56;86.35
75629;BME280;64213;46.452;16.994;2023-08-31T02:10:07;99321.13;;;16.55;86.39
75629;BME280;64213;46.452;16.994;2023-08-31T02:13:13;99320.75;;;16.49;87.48
75629;BME280;64213;46.452;16.994;2023-08-31T02:16:16;99324.28;;;16.50;87.53
75629;BME280;64213;46.452;16.994;2023-08-31T02:19:18;99319.06;;;16.48;86.52
75629;BME280;64213;46.452;16.994;2023-08-31T02:22:20;99325.09;;;16.50;86.71
75629;BME280;64213;46.452;16.994;2023-08-31T02:25:22;99324.56;;;16.47;87.08
75629;BME280;64213;46.452;16.994;2023-08-31T02:28:24;99326.41;;;16.46;87.34
75629;BME280;64213;46.452;16.994;2023-08-31T02:31:26;99331.75;;;16.46;87.70
75629;BME280;64213;46.452;16.994;2023-08-31T02:34:29;99327.69;;;16.42;88.52
75629;BME280;64213;46.452;16.994;2023-08-31T02:37:31;99322.00;;;16.37;88.77
75629;BME280;64213;46.452;16.994;2023-08-31T02:40:34;99327.84;;;16.41;89.19
75629;BME280;64213;46.452;16.994;2023-08-31T02:43:36;99316.66;;;16.37;89.89
75629;BME280;64213;46.452;16.994;2023-08-31T02:46:38;99316.78;;;16.36;90.42
75629;BME280;64213;46.452;16.994;2023-08-31T02:49:40;99325.84;;;16.43;91.52
75629;BME280;64213;46.452;16.994;2023-08-31T02:52:43;99323.78;;;16.37;93.97
75629;BME280;64213;46.452;16.994;2023-08-31T02:56:22;99322.59;;;16.31;93.03
75629;BME280;64213;46.452;16.994;2023-08-31T02:59:24;99319.22;;;16.29;94.40
75629;BME280;64213;46.452;16.994;2023-08-31T03:02:26;99318.41;;;16.28;95.03
75629;BME280;64213;46.452;16.994;2023-08-31T03:05:29;99317.56;;;16.28;95.06
75629;BME280;64213;46.452;16.994;2023-08-31T03:08:36;99310.31;;;16.20;95.49
75629;BME280;64213;46.452;16.994;2023-08-31T03:15:54;99331.34;;;16.23;96.36
75629;BME280;64213;46.452;16.994;2023-08-31T03:18:58;99327.47;;;16.18;97.14
75629;BME280;64213;46.452;16.994;2023-08-31T03:22:00;99334.31;;;16.20;98.06
75629;BME280;64213;46.452;16.994;2023-08-31T03:25:03;99342.94;;;16.14;97.73
75629;BME280;64213;46.452;16.994;2023-08-31T03:28:05;99346.59;;;16.13;98.88
75629;BME280;64213;46.452;16.994;2023-08-31T03:31:07;99345.06;;;16.11;97.47
75629;BME280;64213;46.452;16.994;2023-08-31T03:34:09;99348.62;;;16.01;97.87
75629;BME280;64213;46.452;16.994;2023-08-31T03:37:13;99350.34;;;16.02;99.45
75629;BME280;64213;46.452;16.994;2023-08-31T03:40:15;99357.62;;;16.00;98.72
75629;BME280;64213;46.452;16.994;2023-08-31T03:43:17;99356.09;;;15.98;98.95
75629;BME280;64213;46.452;16.994;2023-08-31T03:46:19;99363.44;;;15.96;99.16
75629;BME280;64213;46.452;16.994;2023-08-31T03:49:21;99361.91;;;15.93;99.76
75629;BME280;64213;46.452;16.994;2023-08-31T03:52:23;99359.22;;;15.93;100.00
75629;BME280;64213;46.452;16.994;2023-08-31T03:55:25;99359.66;;;15.89;100.00
75629;BME280;64213;46.452;16.994;2023-08-31T03:58:28;99356.44;;;15.85;100.00
75629;BME280;64213;46.452;16.994;2023-08-31T04:01:30;99359.13;;;15.85;100.00
75629;BME280;64213;46.452;16.994;2023-08-31T04:04:32;99366.59;;;15.81;100.00
75629;BME280;64213;46.452;16.994;2023-08-31T04:07:35;99362.84;;;15.65;100.00
75629;BME280;64213;46.452;16.994;2023-08-31T04:10:38;99369.84;;;15.66;100.00
75629;BME280;64213;46.452;16.994;2023-08-31T04:13:40;99376.19;;;15.65;100.00
75629;BME280;64213;46.452;16.994;2023-08-31T04:16:42;99375.94;;;15.58;100.00
75629;BME280;64213;46.452;16.994;2023-08-31T04:19:44;99385.59;;;15.59;100.00
75629;BME280;64213;46.452;16.994;2023-08-31T04:22:46;99384.34;;;15.53;100.00
75629;BME280;64213;46.452;16.994;2023-08-31T04:25:48;99385.34;;;15.52;100.00
75629;BME280;64213;46.452;16.994;2023-08-31T04:28:53;99392.63;;;15.50;100.00
75629;BME280;64213;46.452;16.994;2023-08-31T04:31:55;99400.34;;;15.53;100.00
75629;BME280;64213;46.452;16.994;2023-08-31T04:34:57;99403.00;;;15.53;100.00
75629;BME280;64213;46.452;16.994;2023-08-31T04:38:00;99405.38;;;15.56;100.00
75629;BME280;64213;46.452;16.994;2023-08-31T04:41:02;99405.38;;;15.56;100.00
75629;BME280;64213;46.452;16.994;2023-08-31T04:44:04;99413.09;;;15.59;100.00
75629;BME280;64213;46.452;16.994;2023-08-31T04:47:06;99415.38;;;15.54;100.00
75629;BME280;64213;46.452;16.994;2023-08-31T04:50:09;99412.16;;;15.51;100.00
75629;BME280;64213;46.452;16.994;2023-08-31T04:53:11;99428.16;;;15.51;100.00
75629;BME280;64213;46.452;16.994;2023-08-31T04:56:14;99430.94;;;15.49;100.00
75629;BME280;64213;46.452;16.994;2023-08-31T04:59:17;99436.00;;;15.52;100.00
75629;BME280;64213;46.452;16.994;2023-08-31T05:02:19;99438.66;;;15.52;100.00
75629;BME280;64213;46.452;16.994;2023-08-31T05:05:21;99449.63;;;15.49;100.00
75629;BME280;64213;46.452;16.994;2023-08-31T05:08:23;99453.41;;;15.47;100.00
75629;BME280;64213;46.452;16.994;2023-08-31T05:11:26;99452.28;;;15.49;100.00
75629;BME280;64213;46.452;16.994;2023-08-31T05:14:28;99459.44;;;15.49;100.00
75629;BME280;64213;46.452;16.994;2023-08-31T05:17:30;99462.66;;;15.52;100.00
75629;BME280;64213;46.452;16.994;2023-08-31T05:20:33;99464.03;;;15.56;100.00
75629;BME280;64213;46.452;16.994;2023-08-31T05:23:35;99466.41;;;15.59;100.00
75629;BME280;64213;46.452;16.994;2023-08-31T05:26:39;99469.78;;;15.62;100.00
75629;BME280;64213;46.452;16.994;2023-08-31T05:29:41;99476.25;;;15.69;100.00
75629;BME280;64213;46.452;16.994;2023-08-31T05:32:43;99479.06;;;15.67;100.00
75629;BME280;64213;46.452;16.994;2023-08-31T05:35:45;99478.78;;;15.70;100.00
75629;BME280;64213;46.452;16.994;2023-08-31T05:38:47;99486.62;;;15.72;100.00
75629;BME280;64213;46.452;16.994;2023-08-31T05:41:50;99488.00;;;15.76;100.00
75629;BME280;64213;46.452;16.994;2023-08-31T05:44:52;99495.03;;;15.77;100.00
75629;BME280;64213;46.452;16.994;2023-08-31T05:47:54;99491.66;;;15.75;100.00
75629;BME280;64213;46.452;16.994;2023-08-31T05:50:57;99493.34;;;15.76;100.00
75629;BME280;64213;46.452;16.994;2023-08-31T05:53:59;99499.66;;;15.75;100.00
75629;BME280;64213;46.452;16.994;2023-08-31T05:57:02;99497.72;;;15.77;100.00
75629;BME280;64213;46.452;16.994;2023-08-31T06:00:06;99503.03;;;15.77;100.00
75629;BME280;64213;46.452;16.994;2023-08-31T06:03:10;99507.06;;;15.91;100.00
75629;BME280;64213;46.452;16.994;2023-08-31T06:06:14;99510.41;;;16.02;100.00
75629;BME280;64213;46.452;16.994;2023-08-31T06:09:16;99516.41;;;16.04;100.00
75629;BME280;64213;46.452;16.994;2023-08-31T06:12:18;99507.00;;;16.10;100.00
75629;BME280;64213;46.452;16.994;2023-08-31T06:15:20;99505.16;;;16.11;99.76
75629;BME280;64213;46.452;16.994;2023-08-31T06:18:22;99508.06;;;16.17;99.56
75629;BME280;64213;46.452;16.994;2023-08-31T06:21:24;99509.19;;;16.24;99.37
75629;BME280;64213;46.452;16.994;2023-08-31T06:24:26;99513.19;;;16.38;99.57
75629;BME280;64213;46.452;16.994;2023-08-31T06:27:28;99504.38;;;16.56;98.66
75629;BME280;64213;46.452;16.994;2023-08-31T06:30:31;99519.94;;;16.60;98.36
75629;BME280;64213;46.452;16.994;2023-08-31T06:33:33;99520.16;;;16.77;97.32
75629;BME280;64213;46.452;16.994;2023-08-31T06:36:35;99519.25;;;16.86;94.72
75629;BME280;64213;46.452;16.994;2023-08-31T06:39:37;99531.09;;;16.83;95.93
75629;BME280;64213;46.452;16.994;2023-08-31T06:42:39;99527.41;;;16.84;94.68
75629;BME280;64213;46.452;16.994;2023-08-31T06:45:42;99527.09;;;16.87;94.34
75629;BME280;64213;46.452;16.994;2023-08-31T06:48:44;99530.63;;;16.88;93.69
75629;BME280;64213;46.452;16.994;2023-08-31T06:51:46;99542.06;;;16.80;93.24
75629;BME280;64213;46.452;16.994;2023-08-31T06:58:08;99544.47;;;17.01;91.50
75629;BME280;64213;46.452;16.994;2023-08-31T07:01:12;99547.12;;;17.19;91.79
75629;BME280;64213;46.452;16.994;2023-08-31T07:04:14;99552.16;;;17.22;92.42
75629;BME280;64213;46.452;16.994;2023-08-31T07:07:16;99544.09;;;17.14;94.17
75629;BME280;64213;46.452;16.994;2023-08-31T07:10:19;99549.59;;;17.30;93.56
75629;BME280;64213;46.452;16.994;2023-08-31T07:13:21;99554.62;;;17.33;93.65
75629;BME280;64213;46.452;16.994;2023-08-31T07:16:23;99561.13;;;17.31;92.78
75629;BME280;64213;46.452;16.994;2023-08-31T07:19:25;99551.41;;;17.12;91.51
75629;BME280;64213;46.452;16.994;2023-08-31T07:22:28;99566.75;;;17.10;90.70
75629;BME280;64213;46.452;16.994;2023-08-31T07:25:31;99568.59;;;17.27;90.37
75629;BME280;64213;46.452;16.994;2023-08-31T07:28:33;99576.38;;;17.38;90.61
75629;BME280;64213;46.452;16.994;2023-08-31T07:31:35;99586.75;;;17.41;90.51
75629;BME280;64213;46.452;16.994;2023-08-31T07:34:38;99584.22;;;17.58;90.17
75629;BME280;64213;46.452;16.994;2023-08-31T07:37:40;99579.44;;;17.61;89.76
75629;BME280;64213;46.452;16.994;2023-08-31T07:40:43;99589.47;;;17.67;89.10
75629;BME280;64213;46.452;16.994;2023-08-31T07:43:46;99593.62;;;17.80;86.87
75629;BME280;64213;46.452;16.994;2023-08-31T07:47:05;99593.09;;;17.94;87.41
75629;BME280;64213;46.452;16.994;2023-08-31T07:50:07;99610.16;;;18.19;86.12
75629;BME280;64213;46.452;16.994;2023-08-31T07:53:11;99605.53;;;18.29;85.59
75629;BME280;64213;46.452;16.994;2023-08-31T07:56:14;99611.47;;;18.49;81.40
75629;BME280;64213;46.452;16.994;2023-08-31T07:59:17;99621.06;;;18.94;81.63
75629;BME280;64213;46.452;16.994;2023-08-31T08:02:19;99617.84;;;19.41;80.04
75629;BME280;64213;46.452;16.994;2023-08-31T08:05:22;99626.06;;;19.48;79.55
75629;BME280;64213;46.452;16.994;2023-08-31T08:08:24;99634.28;;;19.55;78.92
75629;BME280;64213;46.452;16.994;2023-08-31T08:11:26;99633.19;;;19.82;76.92
75629;BME280;64213;46.452;16.994;2023-08-31T08:14:28;99631.62;;;20.12;74.39
75629;BME280;64213;46.452;16.994;2023-08-31T08:17:31;99634.81;;;20.15;75.29
75629;BME280;64213;46.452;16.994;2023-08-31T08:20:33;99645.91;;;20.20;74.82
75629;BME280;64213;46.452;16.994;2023-08-31T08:23:35;99648.19;;;20.64;73.64
75629;BME280;64213;46.452;16.994;2023-08-31T08:26:37;99650.81;;;21.51;70.19
75629;BME280;64213;46.452;16.994;2023-08-31T08:29:39;99644.13;;;22.31;66.98
75629;BME280;64213;46.452;16.994;2023-08-31T08:32:42;99647.31;;;22.12;64.25
75629;BME280;64213;46.452;16.994;2023-08-31T08:35:45;99649.91;;;23.60;61.19
75629;BME280;64213;46.452;16.994;2023-08-31T08:38:47;99648.13;;;24.10;59.50
75629;BME280;64213;46.452;16.994;2023-08-31T08:41:49;99658.56;;;23.92;59.72
75629;BME280;64213;46.452;16.994;2023-08-31T08:44:52;99673.47;;;24.09;58.33
75629;BME280;64213;46.452;16.994;2023-08-31T08:47:57;99668.16;;;23.58;59.17
75629;BME280;64213;46.452;16.994;2023-08-31T08:51:01;99680.19;;;23.92;57.01
75629;BME280;64213;46.452;16.994;2023-08-31T08:54:03;99685.91;;;24.53;56.18
75629;BME280;64213;46.452;16.994;2023-08-31T08:57:06;99685.56;;;25.04;54.99
75629;BME280;64213;46.452;16.994;2023-08-31T09:00:08;99684.94;;;25.37;52.91
75629;BME280;64213;46.452;16.994;2023-08-31T09:03:12;99687.72;;;25.77;51.59
75629;BME280;64213;46.452;16.994;2023-08-31T09:06:14;99687.63;;;25.37;51.84
75629;BME280;64213;46.452;16.994;2023-08-31T09:09:17;99682.25;;;25.50;50.85
75629;BME280;64213;46.452;16.994;2023-08-31T09:12:23;99680.06;;;26.60;48.09
75629;BME280;64213;46.452;16.994;2023-08-31T09:15:26;99680.69;;;26.29;47.94
75629;BME280;64213;46.452;16.994;2023-08-31T09:18:30;99685.06;;;26.03;48.10
75629;BME280;64213;46.452;16.994;2023-08-31T09:21:37;99683.63;;;26.07;47.43
75629;BME280;64213;46.452;16.994;2023-08-31T09:24:42;99689.59;;;27.54;44.69
75629;BME280;64213;46.452;16.994;2023-08-31T09:27:46;99678.75;;;26.89;45.81
75629;BME280;64213;46.452;16.994;2023-08-31T09:30:50;99681.94;;;27.31;45.23
75629;BME280;64213;46.452;16.994;2023-08-31T09:33:54;99679.09;;;27.12;45.05
75629;BME280;64213;46.452;16.994;2023-08-31T09:37:04;99674.63;;;26.47;46.54
75629;BME280;64213;46.452;16.994;2023-08-31T09:40:07;99680.37;;;27.03;45.49
75629;BME280;64213;46.452;16.994;2023-08-31T09:43:09;99677.00;;;27.08;45.43
75629;BME280;64213;46.452;16.994;2023-08-31T09:46:12;99680.50;;;27.35;45.51
75629;BME280;64213;46.452;16.994;2023-08-31T09:49:16;99682.97;;;26.78;46.87
75629;BME280;64213;46.452;16.994;2023-08-31T09:52:19;99673.94;;;28.13;44.62
75629;BME280;64213;46.452;16.994;2023-08-31T09:55:24;99684.84;;;27.74;44.46
75629;BME280;64213;46.452;16.994;2023-08-31T09:58:27;99688.00;;;27.78;43.80
75629;BME280;64213;46.452;16.994;2023-08-31T10:01:32;99682.88;;;28.20;43.57
75629;BME280;64213;46.452;16.994;2023-08-31T10:04:34;99680.56;;;27.98;43.75
75629;BME280;64213;46.452;16.994;2023-08-31T10:07:39;99678.16;;;28.34;43.86
75629;BME280;64213;46.452;16.994;2023-08-31T10:10:41;99686.69;;;27.87;42.92
75629;BME280;64213;46.452;16.994;2023-08-31T10:13:44;99672.75;;;29.14;40.94
75629;BME280;64213;46.452;16.994;2023-08-31T10:16:49;99686.03;;;29.71;39.88
75629;BME280;64213;46.452;16.994;2023-08-31T10:19:52;99676.50;;;29.92;39.39
75629;BME280;64213;46.452;16.994;2023-08-31T10:22:55;99675.69;;;28.76;39.68
75629;BME280;64213;46.452;16.994;2023-08-31T10:26:00;99680.37;;;29.54;38.40
75629;BME280;64213;46.452;16.994;2023-08-31T10:29:02;99675.78;;;30.73;37.03
75629;BME280;64213;46.452;16.994;2023-08-31T10:32:08;99684.56;;;30.28;35.63
75629;BME280;64213;46.452;16.994;2023-08-31T10:35:10;99682.38;;;29.16;37.51
75629;BME280;64213;46.452;16.994;2023-08-31T10:38:14;99685.12;;;30.30;36.18
75629;BME280;64213;46.452;16.994;2023-08-31T10:41:18;99680.16;;;30.39;35.34
75629;BME280;64213;46.452;16.994;2023-08-31T10:44:26;99682.06;;;30.39;34.83
75629;BME280;64213;46.452;16.994;2023-08-31T10:47:40;99677.25;;;30.10;35.25
75629;BME280;64213;46.452;16.994;2023-08-31T10:50:46;99684.22;;;30.48;35.22
75629;BME280;64213;46.452;16.994;2023-08-31T10:53:49;99683.94;;;31.09;35.42
75629;BME280;64213;46.452;16.994;2023-08-31T10:56:53;99686.72;;;31.25;34.18
75629;BME280;64213;46.452;16.994;2023-08-31T10:59:58;99688.28;;;30.04;36.39
75629;BME280;64213;46.452;16.994;2023-08-31T11:03:02;99689.03;;;29.51;37.59
75629;BME280;64213;46.452;16.994;2023-08-31T11:06:10;99692.09;;;29.42;37.44
75629;BME280;64213;46.452;16.994;2023-08-31T11:09:19;99684.44;;;30.58;36.50
75629;BME280;64213;46.452;16.994;2023-08-31T11:12:22;99687.63;;;30.91;35.96
75629;BME280;64213;46.452;16.994;2023-08-31T11:15:27;99694.28;;;29.34;38.60
75629;BME280;64213;46.452;16.994;2023-08-31T11:18:32;99696.59;;;28.07;40.80
75629;BME280;64213;46.452;16.994;2023-08-31T11:21:36;99702.19;;;26.24;43.67
75629;BME280;64213;46.452;16.994;2023-08-31T11:24:39;99696.13;;;26.08;43.87
75629;BME280;64213;46.452;16.994;2023-08-31T11:27:55;99693.63;;;25.25;46.01
75629;BME280;64213;46.452;16.994;2023-08-31T11:30:58;99707.22;;;24.69;46.99
75629;BME280;64213;46.452;16.994;2023-08-31T11:34:00;99691.00;;;23.92;48.56
75629;BME280;64213;46.452;16.994;2023-08-31T11:37:02;99704.31;;;23.93;48.50
75629;BME280;64213;46.452;16.994;2023-08-31T11:40:05;99709.00;;;23.84;49.03
75629;BME280;64213;46.452;16.994;2023-08-31T11:43:07;99703.47;;;23.20;51.42
75629;BME280;64213;46.452;16.994;2023-08-31T11:46:10;99705.66;;;23.31;51.15
75629;BME280;64213;46.452;16.994;2023-08-31T11:49:12;99704.09;;;22.92;52.08
75629;BME280;64213;46.452;16.994;2023-08-31T11:52:15;99695.00;;;22.79;53.64
75629;BME280;64213;46.452;16.994;2023-08-31T11:55:17;99701.47;;;24.23;51.11
75629;BME280;64213;46.452;16.994;2023-08-31T11:58:20;99711.34;;;26.23;45.75
75629;BME280;64213;46.452;16.994;2023-08-31T12:01:22;99705.38;;;27.12;43.17
75629;BME280;64213;46.452;16.994;2023-08-31T12:04:25;99712.94;;;28.00;41.18
75629;BME280;64213;46.452;16.994;2023-08-31T12:07:28;99713.06;;;28.43;39.70
75629;BME280;64213;46.452;16.994;2023-08-31T12:10:30;99702.53;;;28.72;39.71
75629;BME280;64213;46.452;16.994;2023-08-31T12:13:32;99706.53;;;28.69;39.48
75629;BME280;64213;46.452;16.994;2023-08-31T12:16:35;99703.31;;;29.16;39.01
75629;BME280;64213;46.452;16.994;2023-08-31T12:19:38;99699.47;;;29.72;37.15
75629;BME280;64213;46.452;16.994;2023-08-31T12:22:43;99700.94;;;30.28;34.95
75629;BME280;64213;46.452;16.994;2023-08-31T12:25:49;99694.78;;;29.61;35.87
75629;BME280;64213;46.452;16.994;2023-08-31T12:28:52;99685.88;;;29.96;35.44
75629;BME280;64213;46.452;16.994;2023-08-31T12:31:55;99680.41;;;30.85;33.96
75629;BME280;64213;46.452;16.994;2023-08-31T12:34:57;99691.94;;;29.98;35.45
75629;BME280;64213;46.452;16.994;2023-08-31T12:38:00;99680.16;;;29.85;35.88
75629;BME280;64213;46.452;16.994;2023-08-31T12:41:02;99676.00;;;30.84;34.74
75629;BME280;64213;46.452;16.994;2023-08-31T12:44:07;99683.03;;;29.91;35.84
75629;BME280;64213;46.452;16.994;2023-08-31T12:47:10;99681.16;;;29.12;36.95
75629;BME280;64213;46.452;16.994;2023-08-31T12:50:12;99686.75;;;27.35;39.99
75629;BME280;64213;46.452;16.994;2023-08-31T12:53:15;99692.97;;;27.43;40.16
75629;BME280;64213;46.452;16.994;2023-08-31T12:56:17;99682.09;;;26.91;41.51
75629;BME280;64213;46.452;16.994;2023-08-31T12:59:26;99681.97;;;26.33;42.34
75629;BME280;64213;46.452;16.994;2023-08-31T13:02:28;99684.03;;;26.04;43.06
75629;BME280;64213;46.452;16.994;2023-08-31T13:05:30;99683.91;;;25.51;43.89
75629;BME280;64213;46.452;16.994;2023-08-31T13:08:33;99687.97;;;25.20;44.59
75629;BME280;64213;46.452;16.994;2023-08-31T13:11:35;99685.09;;;24.94;45.12
75629;BME280;64213;46.452;16.994;2023-08-31T13:14:37;99684.81;;;24.82;45.62
75629;BME280;64213;46.452;16.994;2023-08-31T13:17:40;99688.56;;;23.97;47.65
75629;BME280;64213;46.452;16.994;2023-08-31T13:20:53;99701.69;;;23.63;48.68
75629;BME280;64213;46.452;16.994;2023-08-31T13:23:55;99706.84;;;23.58;48.62
75629;BME280;64213;46.452;16.994;2023-08-31T13:26:57;99715.06;;;23.35;48.78
75629;BME280;64213;46.452;16.994;2023-08-31T13:30:00;99703.28;;;23.07;49.87
75629;BME280;64213;46.452;16.994;2023-08-31T13:33:02;99705.88;;;23.15;49.79
75629;BME280;64213;46.452;16.994;2023-08-31T13:36:06;99702.06;;;23.24;49.47
75629;BME280;64213;46.452;16.994;2023-08-31T13:39:08;99708.59;;;23.15;49.92
75629;BME280;64213;46.452;16.994;2023-08-31T13:42:11;99707.84;;;23.21;49.47
75629;BME280;64213;46.452;16.994;2023-08-31T13:45:13;99712.84;;;23.24;49.58
75629;BME280;64213;46.452;16.994;2023-08-31T13:48:16;99723.38;;;23.19;50.28
75629;BME280;64213;46.452;16.994;2023-08-31T13:51:21;99719.22;;;23.53;49.41
75629;BME280;64213;46.452;16.994;2023-08-31T13:54:23;99724.84;;;24.87;47.02
75629;BME280;64213;46.452;16.994;2023-08-31T13:57:25;99721.13;;;25.90;44.66
75629;BME280;64213;46.452;16.994;2023-08-31T14:00:28;99718.84;;;26.74;43.01
75629;BME280;64213;46.452;16.994;2023-08-31T14:03:33;99710.03;;;27.56;41.72
75629;BME280;64213;46.452;16.994;2023-08-31T14:06:36;99705.41;;;28.02;40.56
75629;BME280;64213;46.452;16.994;2023-08-31T14:09:38;99709.31;;;27.81;40.25
75629;BME280;64213;46.452;16.994;2023-08-31T14:12:40;99704.69;;;27.81;40.19
75629;BME280;64213;46.452;16.994;2023-08-31T14:15:45;99704.78;;;27.62;40.19
75629;BME280;64213;46.452;16.994;2023-08-31T14:18:48;99700.19;;;27.10;40.85
75629;BME280;64213;46.452;16.994;2023-08-31T14:21:50;99696.09;;;26.88;41.30
75629;BME280;64213;46.452;16.994;2023-08-31T14:24:54;99701.56;;;26.61;41.25
75629;BME280;64213;46.452;16.994;2023-08-31T14:27:57;99706.97;;;26.81;41.17
75629;BME280;64213;46.452;16.994;2023-08-31T14:31:04;99702.53;;;27.00;40.22
75629;BME280;64213;46.452;16.994;2023-08-31T14:34:06;99707.50;;;27.62;39.88
75629;BME280;64213;46.452;16.994;2023-08-31T14:37:09;99702.28;;;27.08;41.64
75629;BME280;64213;46.452;16.994;2023-08-31T14:40:12;99708.88;;;26.21;43.35
75629;BME280;64213;46.452;16.994;2023-08-31T14:43:14;99709.47;;;26.10;43.98
75629;BME280;64213;46.452;16.994;2023-08-31T14:46:17;99718.03;;;26.13;43.92
75629;BME280;64213;46.452;16.994;2023-08-31T14:49:22;99708.53;;;25.56;44.31
75629;BME280;64213;46.452;16.994;2023-08-31T14:52:24;99700.31;;;26.17;43.34
75629;BME280;64213;46.452;16.994;2023-08-31T14:55:27;99708.66;;;26.62;42.06
75629;BME280;64213;46.452;16.994;2023-08-31T14:58:30;99706.78;;;26.16;43.06
75629;BME280;64213;46.452;16.994;2023-08-31T15:01:32;99706.34;;;26.13;43.39
75629;BME280;64213;46.452;16.994;2023-08-31T15:04:35;99707.00;;;26.48;43.09
75629;BME280;64213;46.452;16.994;2023-08-31T15:07:38;99695.09;;;26.36;43.05
75629;BME280;64213;46.452;16.994;2023-08-31T15:10:41;99691.13;;;26.18;42.70
75629;BME280;64213;46.452;16.994;2023-08-31T15:13:44;99698.63;;;26.43;42.22
75629;BME280;64213;46.452;16.994;2023-08-31T15:16:47;99696.13;;;26.15;42.89
75629;BME280;64213;46.452;16.994;2023-08-31T15:19:52;99713.44;;;26.34;42.70
75629;BME280;64213;46.452;16.994;2023-08-31T15:22:54;99703.22;;;26.03;43.07
75629;BME280;64213;46.452;16.994;2023-08-31T15:26:02;99708.84;;;25.94;42.95
75629;BME280;64213;46.452;16.994;2023-08-31T15:29:09;99705.09;;;26.15;42.34
75629;BME280;64213;46.452;16.994;2023-08-31T15:32:11;99703.56;;;25.80;43.03
75629;BME280;64213;46.452;16.994;2023-08-31T15:35:14;99697.69;;;25.56;43.63
75629;BME280;64213;46.452;16.994;2023-08-31T15:38:18;99707.19;;;25.39;44.32
75629;BME280;64213;46.452;16.994;2023-08-31T15:41:21;99697.88;;;25.06;44.67
75629;BME280;64213;46.452;16.994;2023-08-31T15:44:24;99710.09;;;24.61;45.51
75629;BME280;64213;46.452;16.994;2023-08-31T15:47:27;99720.66;;;24.34;46.58
75629;BME280;64213;46.452;16.994;2023-08-31T15:50:29;99713.38;;;24.07;47.13
75629;BME280;64213;46.452;16.994;2023-08-31T15:53:33;99711.19;;;23.96;47.98
75629;BME280;64213;46.452;16.994;2023-08-31T15:56:35;99709.91;;;23.92;48.13
75629;BME280;64213;46.452;16.994;2023-08-31T15:59:38;99723.59;;;23.69;48.86
75629;BME280;64213;46.452;16.994;2023-08-31T16:02:40;99725.09;;;23.41;49.57
75629;BME280;64213;46.452;16.994;2023-08-31T16:05:43;99721.41;;;23.28;49.95
75629;BME280;64213;46.452;16.994;2023-08-31T16:08:51;99719.59;;;23.13;51.07
75629;BME280;64213;46.452;16.994;2023-08-31T16:11:53;99717.53;;;23.01;51.70